createdAt,value
2023-09-29T00:01:27.703Z,98426.78
2023-09-29T00:04:30.533Z,98429.34
2023-09-29T00:07:33.311Z,98419.66
2023-09-29T00:10:36.873Z,98420.25
2023-09-29T00:13:41.116Z,98420.25
2023-09-29T00:16:43.934Z,98429.56
2023-09-29T00:19:46.661Z,98428.47
2023-09-29T00:22:49.380Z,98427.47
2023-09-29T00:25:52.068Z,98423.19
2023-09-29T00:28:57.261Z,98421.44
2023-09-29T00:32:00.134Z,98423.97
2023-09-29T00:35:05.333Z,98419.97
2023-09-29T00:38:08.216Z,98423.97
2023-09-29T00:41:11.125Z,98425.00
2023-09-29T00:44:15.309Z,98428.81
2023-09-29T00:47:18.266Z,98424.19
2023-09-29T00:50:22.464Z,98427.88
2023-09-29T00:53:25.554Z,98430.31
2023-09-29T00:56:29.524Z,98419.50
2023-09-29T00:59:35.286Z,98429.69
2023-09-29T01:02:38.645Z,98425.91
2023-09-29T01:05:44.074Z,98421.69
2023-09-29T01:08:47.215Z,98426.31
2023-09-29T01:11:50.486Z,98416.38
2023-09-29T01:14:54.650Z,98417.56
2023-09-29T01:17:57.578Z,98418.00
2023-09-29T01:21:00.465Z,98414.28
2023-09-29T01:24:07.158Z,98415.28
2023-09-29T01:27:09.856Z,98411.88
2023-09-29T01:30:14.828Z,98418.38
2023-09-29T01:33:20.698Z,98412.66
2023-09-29T01:36:23.430Z,98409.75
2023-09-29T01:39:28.301Z,98407.47
2023-09-29T01:42:31.010Z,98416.69
2023-09-29T01:45:35.057Z,98411.88
2023-09-29T01:48:37.935Z,98411.47
2023-09-29T01:51:40.766Z,98408.06
2023-09-29T01:54:45.776Z,98410.19
2023-09-29T01:57:49.642Z,98402.78
2023-09-29T02:00:52.451Z,98405.66
2023-09-29T02:03:55.322Z,98400.06
2023-09-29T02:06:58.314Z,98401.97
2023-09-29T02:10:02.454Z,98396.66
2023-09-29T02:13:06.584Z,98406.56
2023-09-29T02:16:15.726Z,98399.56
2023-09-29T02:19:18.685Z,98395.34
2023-09-29T02:22:22.068Z,98392.84
2023-09-29T02:25:27.549Z,98401.84
2023-09-29T02:28:32.165Z,98397.34
2023-09-29T02:31:37.421Z,98400.94
2023-09-29T02:34:40.397Z,98401.31
2023-09-29T02:37:43.699Z,98392.47
2023-09-29T02:40:48.214Z,98393.56
2023-09-29T02:43:50.953Z,98387.09
2023-09-29T02:46:53.878Z,98393.09
2023-09-29T02:49:59.166Z,98391.38
2023-09-29T02:53:06.346Z,98399.00
2023-09-29T02:56:12.938Z,98410.47
2023-09-29T02:59:16.688Z,98397.53
2023-09-29T03:02:19.464Z,98403.56
2023-09-29T03:05:23.172Z,98398.34
2023-09-29T03:08:26.223Z,98392.63
2023-09-29T03:11:30.824Z,98389.72
2023-09-29T03:14:33.851Z,98389.16
2023-09-29T03:17:38.269Z,98389.44
2023-09-29T03:20:41.384Z,98387.69
2023-09-29T03:23:44.725Z,98397.06
2023-09-29T03:26:50.521Z,98389.44
2023-09-29T03:29:53.330Z,98391.88
2023-09-29T03:32:57.163Z,98398.50
2023-09-29T03:36:00.317Z,98395.13
2023-09-29T03:39:06.241Z,98395.19
2023-09-29T03:42:10.368Z,98389.09
2023-09-29T03:45:15.434Z,98391.44
2023-09-29T03:48:18.664Z,98395.72
2023-09-29T03:51:24.997Z,98394.72
2023-09-29T03:54:28.002Z,98406.75
2023-09-29T03:57:33.060Z,98409.38
2023-09-29T04:00:36.068Z,98418.31
2023-09-29T04:03:39.131Z,98422.59
2023-09-29T04:06:42.015Z,98419.38
2023-09-29T04:09:44.862Z,98413.97
2023-09-29T04:12:49.763Z,98405.88
2023-09-29T04:15:52.714Z,98402.16
2023-09-29T04:18:55.947Z,98409.06
2023-09-29T04:21:59.022Z,98406.97
2023-09-29T04:25:01.771Z,98416.28
2023-09-29T04:28:06.433Z,98424.78
2023-09-29T04:31:09.229Z,98432.28
2023-09-29T04:34:12.288Z,98436.50
2023-09-29T04:37:15.734Z,98439.81
2023-09-29T04:40:19.418Z,98439.41
2023-09-29T04:43:23.489Z,98437.50
2023-09-29T04:46:26.429Z,98434.69
2023-09-29T04:49:29.506Z,98426.28
2023-09-29T04:52:32.313Z,98422.75
2023-09-29T04:55:35.099Z,98427.28
2023-09-29T04:58:39.196Z,98427.59
2023-09-29T05:01:41.926Z,98426.16
2023-09-29T05:04:45.721Z,98434.69
2023-09-29T05:07:48.497Z,98423.84
2023-09-29T05:10:51.198Z,98425.75
2023-09-29T05:13:57.260Z,98426.25
2023-09-29T05:17:01.056Z,98424.84
2023-09-29T05:20:06.234Z,98424.03
2023-09-29T05:23:08.997Z,98425.34
2023-09-29T05:26:11.896Z,98440.16
2023-09-29T05:29:16.157Z,98430.31
2023-09-29T05:32:18.820Z,98429.41
2023-09-29T05:35:21.565Z,98432.53
2023-09-29T05:38:24.497Z,98435.25
2023-09-29T05:41:27.260Z,98446.25
2023-09-29T05:44:31.370Z,98431.13
2023-09-29T05:47:34.244Z,98446.16
2023-09-29T05:50:37.155Z,98451.78
2023-09-29T05:53:40.973Z,98448.69
2023-09-29T05:56:43.773Z,98447.94
2023-09-29T05:59:47.981Z,98443.41
2023-09-29T06:02:50.893Z,98438.75
2023-09-29T06:05:53.749Z,98447.41
2023-09-29T06:08:56.572Z,98459.41
2023-09-29T06:11:59.373Z,98453.25
2023-09-29T06:15:04.005Z,98457.94
2023-09-29T06:18:07.186Z,98447.13
2023-09-29T06:21:10.256Z,98462.06
2023-09-29T06:24:13.073Z,98460.38
2023-09-29T06:27:16.353Z,98459.31
2023-09-29T06:30:20.847Z,98459.84
2023-09-29T06:33:23.810Z,98465.50
2023-09-29T06:36:26.600Z,98473.03
2023-09-29T06:39:29.411Z,98471.63
2023-09-29T06:42:32.290Z,98470.06
2023-09-29T06:45:56.950Z,98475.19
2023-09-29T06:49:00.246Z,98486.06
2023-09-29T06:52:03.201Z,98482.72
2023-09-29T06:55:06.842Z,98488.31
2023-09-29T06:58:09.622Z,98483.38
2023-09-29T07:01:13.721Z,98491.22
2023-09-29T07:04:16.787Z,98482.75
2023-09-29T07:07:19.638Z,98481.97
2023-09-29T07:10:22.367Z,98477.94
2023-09-29T07:13:25.136Z,98476.56
2023-09-29T07:16:29.834Z,98475.28
2023-09-29T07:19:44.981Z,98474.78
2023-09-29T07:22:48.839Z,98477.69
2023-09-29T07:25:54.262Z,98475.63
2023-09-29T07:29:02.304Z,98470.34
2023-09-29T07:32:06.621Z,98473.69
2023-09-29T07:35:10.451Z,98468.59
2023-09-29T07:38:14.175Z,98477.38
2023-09-29T07:41:16.921Z,98466.34
2023-09-29T07:44:19.642Z,98470.97
2023-09-29T07:47:23.661Z,98479.28
2023-09-29T07:50:26.498Z,98480.56
2023-09-29T07:53:29.199Z,98486.31
2023-09-29T07:56:31.890Z,98481.47
2023-09-29T07:59:34.724Z,98478.56
2023-09-29T08:02:39.168Z,98473.09
2023-09-29T08:05:41.975Z,98483.78
2023-09-29T08:08:45.040Z,98490.16
2023-09-29T08:11:47.896Z,98480.16
2023-09-29T08:14:51.592Z,98480.13
2023-09-29T08:17:55.811Z,98482.84
2023-09-29T08:20:58.613Z,98480.88
2023-09-29T08:24:04.046Z,98478.91
2023-09-29T08:27:07.612Z,98481.88
2023-09-29T08:30:11.442Z,98488.28
2023-09-29T08:33:22.926Z,98474.19
2023-09-29T08:36:35.698Z,98471.28
2023-09-29T08:39:40.131Z,98469.97
2023-09-29T08:42:50.967Z,98475.16
2023-09-29T08:45:58.611Z,98471.47
2023-09-29T08:49:05.336Z,98471.63
2023-09-29T08:52:10.584Z,98471.03
2023-09-29T08:55:14.377Z,98480.19
2023-09-29T08:58:17.113Z,98481.06
2023-09-29T09:01:22.597Z,98466.50
2023-09-29T09:04:28.573Z,98466.13
2023-09-29T09:07:32.819Z,98467.66
2023-09-29T09:10:36.817Z,98456.94
2023-09-29T09:13:39.582Z,98466.38
2023-09-29T09:16:42.353Z,98449.53
2023-09-29T09:19:52.302Z,98453.34
2023-09-29T09:22:59.811Z,98448.16
2023-09-29T09:26:13.078Z,98451.06
2023-09-29T09:29:18.055Z,98450.78
2023-09-29T09:32:27.938Z,98458.31
2023-09-29T09:35:35.689Z,98460.75
2023-09-29T09:38:39.114Z,98458.47
2023-09-29T09:41:44.513Z,98454.47
2023-09-29T09:44:47.327Z,98457.50
2023-09-29T09:47:51.242Z,98466.88
2023-09-29T09:50:59.855Z,98455.34
2023-09-29T09:54:04.470Z,98460.31
2023-09-29T09:57:12.814Z,98463.84
2023-09-29T10:00:16.137Z,98461.47
2023-09-29T10:03:20.022Z,98459.03
2023-09-29T10:06:26.558Z,98448.66
2023-09-29T10:09:29.290Z,98450.47
2023-09-29T10:12:33.251Z,98451.41
2023-09-29T10:15:36.431Z,98450.75
2023-09-29T10:18:39.266Z,98455.88
2023-09-29T10:21:46.465Z,98467.56
2023-09-29T10:24:49.468Z,98464.31
2023-09-29T10:28:01.037Z,98450.94
2023-09-29T10:31:10.822Z,98450.34
2023-09-29T10:34:21.256Z,98450.56
2023-09-29T10:37:27.316Z,98446.88
2023-09-29T10:40:33.462Z,98443.03
2023-09-29T10:43:37.335Z,98435.44
2023-09-29T10:46:51.898Z,98436.06
2023-09-29T10:49:56.478Z,98425.66
2023-09-29T10:53:00.578Z,98428.56
2023-09-29T10:56:05.060Z,98427.56
2023-09-29T10:59:11.027Z,98423.72
2023-09-29T11:02:14.317Z,98423.00
2023-09-29T11:05:18.123Z,98416.44
2023-09-29T11:08:32.329Z,98420.06
2023-09-29T11:11:37.192Z,98409.06
2023-09-29T11:14:41.401Z,98401.69
2023-09-29T11:17:46.630Z,98400.97
2023-09-29T11:20:53.011Z,98395.06
2023-09-29T11:23:57.887Z,98396.25
2023-09-29T11:27:02.235Z,98397.06
2023-09-29T11:30:07.694Z,98391.59
2023-09-29T11:33:12.136Z,98386.91
2023-09-29T11:36:16.561Z,98397.63
2023-09-29T11:39:23.482Z,98383.03
2023-09-29T11:42:27.539Z,98383.44
2023-09-29T11:45:30.423Z,98380.25
2023-09-29T11:48:33.320Z,98381.47
2023-09-29T11:51:36.831Z,98373.22
2023-09-29T11:54:41.899Z,98368.84
2023-09-29T11:57:44.770Z,98364.88
2023-09-29T12:00:49.076Z,98374.38
2023-09-29T12:03:52.667Z,98366.84
2023-09-29T12:06:55.626Z,98366.06
2023-09-29T12:10:00.585Z,98364.84
2023-09-29T12:13:05.668Z,98357.38
2023-09-29T12:16:10.832Z,98371.19
2023-09-29T12:19:14.198Z,98351.47
2023-09-29T12:22:17.188Z,98358.16
2023-09-29T12:25:21.317Z,98345.91
2023-09-29T12:28:24.076Z,98359.72
2023-09-29T12:31:26.922Z,98344.28
2023-09-29T12:34:33.448Z,98344.34
2023-09-29T12:37:36.196Z,98345.09
2023-09-29T12:40:40.499Z,98345.53
2023-09-29T12:43:44.540Z,98338.75
2023-09-29T12:46:47.846Z,98346.28
2023-09-29T12:49:51.729Z,98349.44
2023-09-29T12:52:54.490Z,98351.81
2023-09-29T12:55:59.411Z,98349.44
2023-09-29T12:59:02.243Z,98351.81
2023-09-29T13:02:05.350Z,98353.38
2023-09-29T13:05:10.929Z,98352.19
2023-09-29T13:08:13.758Z,98354.63
2023-09-29T13:11:19.350Z,98360.50
2023-09-29T13:14:23.957Z,98356.91
2023-09-29T13:17:26.943Z,98352.09
2023-09-29T13:20:29.734Z,98352.81
2023-09-29T13:23:32.696Z,98351.50
2023-09-29T13:26:37.162Z,98354.16
2023-09-29T13:29:40.035Z,98354.56
2023-09-29T13:32:43.096Z,98365.56
2023-09-29T13:35:45.993Z,98364.66
2023-09-29T13:38:49.386Z,98356.41
2023-09-29T13:41:54.092Z,98360.75
2023-09-29T13:44:57.224Z,98355.28
2023-09-29T13:48:02.432Z,98364.03
2023-09-29T13:51:06.259Z,98365.25
2023-09-29T13:54:09.548Z,98368.03
2023-09-29T13:57:13.691Z,98377.38
2023-09-29T14:00:19.445Z,98373.34
2023-09-29T14:03:22.406Z,98364.94
2023-09-29T14:06:25.437Z,98378.13
2023-09-29T14:09:28.795Z,98374.50
2023-09-29T14:12:37.394Z,98375.97
2023-09-29T14:15:40.354Z,98380.53
2023-09-29T14:18:44.105Z,98371.22
2023-09-29T14:21:48.696Z,98384.09
2023-09-29T14:24:51.552Z,98386.34
2023-09-29T14:27:55.658Z,98386.41
2023-09-29T14:30:58.398Z,98395.66
2023-09-29T14:34:01.303Z,98402.19
2023-09-29T14:37:05.070Z,98413.34
2023-09-29T14:40:09.822Z,98415.88
2023-09-29T14:43:14.048Z,98427.78
2023-09-29T14:46:17.865Z,98427.88
2023-09-29T14:49:20.930Z,98443.38
2023-09-29T14:52:23.676Z,98437.19
2023-09-29T14:55:27.657Z,98442.63
2023-09-29T14:58:31.755Z,98449.50
2023-09-29T15:01:34.488Z,98466.91
2023-09-29T15:04:55.487Z,98471.69
2023-09-29T15:07:59.484Z,98473.72
2023-09-29T15:11:03.475Z,98469.56
2023-09-29T15:14:08.124Z,98485.19
2023-09-29T15:17:10.903Z,98505.03
2023-09-29T15:20:16.336Z,98510.16
2023-09-29T15:23:19.954Z,98504.88
2023-09-29T15:26:23.334Z,98508.16
2023-09-29T15:29:27.460Z,98519.75
2023-09-29T15:32:30.286Z,98518.09
2023-09-29T15:35:36.012Z,98527.97
2023-09-29T15:38:40.446Z,98525.94
2023-09-29T15:41:43.171Z,98539.72
2023-09-29T15:44:47.521Z,98534.72
2023-09-29T15:47:50.554Z,98534.19
2023-09-29T15:50:56.329Z,98538.97
2023-09-29T15:54:00.193Z,98548.59
2023-09-29T15:57:03.346Z,98555.81
2023-09-29T16:00:09.521Z,98558.34
2023-09-29T16:03:12.900Z,98580.50
2023-09-29T16:06:15.869Z,98576.31
2023-09-29T16:09:18.621Z,98583.72
2023-09-29T16:12:21.509Z,98583.06
2023-09-29T16:15:26.002Z,98590.25
2023-09-29T16:18:29.624Z,98596.50
2023-09-29T16:21:32.775Z,98608.84
2023-09-29T16:24:36.270Z,98602.34
2023-09-29T16:27:39.106Z,98618.31
2023-09-29T16:30:43.942Z,98622.31
2023-09-29T16:33:47.065Z,98615.63
2023-09-29T16:36:50.056Z,98624.72
2023-09-29T16:39:52.898Z,98631.22
2023-09-29T16:42:56.562Z,98648.75
2023-09-29T16:46:01.002Z,98647.69
2023-09-29T16:49:04.309Z,98649.94
2023-09-29T16:52:07.907Z,98652.44
2023-09-29T16:55:12.148Z,98657.44
2023-09-29T16:58:14.994Z,98657.22
2023-09-29T17:01:19.996Z,98662.81
2023-09-29T17:04:22.870Z,98661.75
2023-09-29T17:07:25.962Z,98666.41
2023-09-29T17:10:32.040Z,98663.69
2023-09-29T17:13:36.493Z,98676.28
2023-09-29T17:16:41.008Z,98663.44
2023-09-29T17:19:45.151Z,98680.16
2023-09-29T17:22:48.030Z,98683.78
2023-09-29T17:25:50.912Z,98696.56
2023-09-29T17:28:53.800Z,98716.97
2023-09-29T17:31:58.016Z,98711.69
2023-09-29T17:35:02.098Z,98719.28
2023-09-29T17:38:05.345Z,98730.72
2023-09-29T17:41:10.753Z,98730.44
2023-09-29T17:44:15.033Z,98732.56
2023-09-29T17:47:19.345Z,98738.38
2023-09-29T17:50:22.313Z,98737.44
2023-09-29T17:53:25.429Z,98740.97
2023-09-29T17:56:28.525Z,98746.59
2023-09-29T17:59:33.530Z,98747.41
2023-09-29T18:02:37.766Z,98753.69
2023-09-29T18:05:40.706Z,98752.03
2023-09-29T18:08:43.768Z,98752.06
2023-09-29T18:11:46.874Z,98750.97
2023-09-29T18:14:50.232Z,98759.25
2023-09-29T18:17:54.859Z,98756.03
2023-09-29T18:21:01.002Z,98756.53
2023-09-29T18:24:06.750Z,98743.25
2023-09-29T18:27:10.226Z,98753.47
2023-09-29T18:30:13.813Z,98751.56
2023-09-29T18:33:18.309Z,98759.28
2023-09-29T18:36:21.294Z,98757.00
2023-09-29T18:39:24.235Z,98757.50
2023-09-29T18:42:27.291Z,98754.28
2023-09-29T18:45:30.765Z,98748.84
2023-09-29T18:48:35.180Z,98758.81
2023-09-29T18:51:38.967Z,98764.59
2023-09-29T18:54:42.047Z,98774.56
2023-09-29T18:57:44.753Z,98770.06
2023-09-29T19:00:47.657Z,98782.44
2023-09-29T19:03:51.840Z,98786.78
2023-09-29T19:06:54.902Z,98789.03
2023-09-29T19:09:58.192Z,98790.78
2023-09-29T19:13:01.442Z,98796.25
2023-09-29T19:16:06.877Z,98801.09
2023-09-29T19:19:11.756Z,98803.34
2023-09-29T19:22:14.535Z,98807.06
2023-09-29T19:25:18.447Z,98812.38
2023-09-29T19:28:21.404Z,98824.22
2023-09-29T19:31:26.902Z,98820.41
2023-09-29T19:34:31.406Z,98832.75
2023-09-29T19:37:34.302Z,98831.63
2023-09-29T19:40:37.137Z,98829.88
2023-09-29T19:43:39.994Z,98839.81
2023-09-29T19:46:43.201Z,98842.88
2023-09-29T19:49:47.646Z,98836.13
2023-09-29T19:52:50.574Z,98849.59
2023-09-29T19:55:53.692Z,98852.31
2023-09-29T19:58:56.618Z,98846.22
2023-09-29T20:02:00.288Z,98838.22
2023-09-29T20:05:04.833Z,98857.94
2023-09-29T20:08:07.889Z,98852.00
2023-09-29T20:11:11.059Z,98848.16
2023-09-29T20:14:15.658Z,98849.28
2023-09-29T20:17:21.114Z,98860.78
2023-09-29T20:20:25.616Z,98867.69
2023-09-29T20:23:30.018Z,98861.41
2023-09-29T20:26:35.892Z,98862.53
2023-09-29T20:29:39.431Z,98863.19
2023-09-29T20:32:42.334Z,98865.72
2023-09-29T20:35:47.776Z,98871.84
2023-09-29T20:38:50.882Z,98872.44
2023-09-29T20:41:53.719Z,98877.59
2023-09-29T20:44:56.617Z,98882.06
2023-09-29T20:48:00.662Z,98885.94
2023-09-29T20:51:05.222Z,98886.88
2023-09-29T20:54:08.237Z,98887.03
2023-09-29T20:57:11.096Z,98896.31
2023-09-29T21:00:14.674Z,98891.50
2023-09-29T21:03:17.707Z,98890.09
2023-09-29T21:06:21.945Z,98887.53
2023-09-29T21:09:25.013Z,98889.13
2023-09-29T21:12:28.070Z,98895.19
2023-09-29T21:15:30.966Z,98894.84
2023-09-29T21:18:33.840Z,98895.50
2023-09-29T21:21:38.655Z,98900.75
2023-09-29T21:24:41.767Z,98901.41
2023-09-29T21:27:44.747Z,98903.97
2023-09-29T21:30:47.837Z,98904.28
2023-09-29T21:33:51.223Z,98912.94
2023-09-29T21:36:55.632Z,98917.06
2023-09-29T21:39:58.499Z,98915.63
2023-09-29T21:43:01.275Z,98911.91
2023-09-29T21:46:04.234Z,98910.47
2023-09-29T21:49:07.434Z,98916.03
2023-09-29T21:52:11.622Z,98919.09
2023-09-29T21:55:14.805Z,98922.13
2023-09-29T21:58:17.736Z,98918.44
2023-09-29T22:01:21.241Z,98911.03
2023-09-29T22:04:24.403Z,98920.13
2023-09-29T22:07:28.735Z,98931.63
2023-09-29T22:10:32.846Z,98931.13
2023-09-29T22:13:35.620Z,98925.78
2023-09-29T22:16:38.448Z,98935.38
2023-09-29T22:19:42.795Z,98935.22
2023-09-29T22:22:47.217Z,98933.75
2023-09-29T22:25:50.318Z,98944.28
2023-09-29T22:28:53.207Z,98937.88
2023-09-29T22:31:56.347Z,98938.00
2023-09-29T22:35:00.395Z,98940.25
2023-09-29T22:38:05.623Z,98945.00
2023-09-29T22:41:08.712Z,98944.69
2023-09-29T22:44:12.471Z,98944.06
2023-09-29T22:47:15.626Z,98941.34
2023-09-29T22:50:18.867Z,98944.06
2023-09-29T22:53:24.264Z,98933.81
2023-09-29T22:56:28.645Z,98934.91
2023-09-29T22:59:31.764Z,98940.00
2023-09-29T23:02:34.770Z,98937.38
2023-09-29T23:05:38.340Z,98941.03
2023-09-29T23:08:42.831Z,98938.44
2023-09-29T23:11:45.805Z,98944.50
2023-09-29T23:14:50.914Z,98951.34
2023-09-29T23:17:55.845Z,98945.91
2023-09-29T23:20:58.827Z,98958.25
2023-09-29T23:24:02.979Z,98962.59
2023-09-29T23:27:05.875Z,98981.81
2023-09-29T23:30:10.484Z,98983.53
2023-09-29T23:33:13.573Z,98980.81
2023-09-29T23:36:20.664Z,98994.91
2023-09-29T23:39:25.077Z,99003.25
2023-09-29T23:42:28.991Z,99004.66
2023-09-29T23:45:32.250Z,99011.41
2023-09-29T23:48:35.124Z,99014.44
2023-09-29T23:51:38.035Z,99026.63
2023-09-29T23:54:42.593Z,99026.63
2023-09-29T23:57:45.857Z,99025.00
